createdAt,value
2023-01-19T00:00:16.107Z,3.88
2023-01-19T00:03:21.574Z,4.22
2023-01-19T00:06:26.592Z,4.57
2023-01-19T00:09:33.364Z,3.65
2023-01-19T00:12:38.352Z,4.25
2023-01-19T00:15:43.506Z,4.53
2023-01-19T00:18:48.458Z,4.40
2023-01-19T00:21:53.889Z,3.88
2023-01-19T00:24:58.846Z,3.90
2023-01-19T00:28:03.849Z,4.53
2023-01-19T00:31:09.118Z,3.10
2023-01-19T00:34:14.300Z,3.60
2023-01-19T00:37:19.219Z,3.40
2023-01-19T00:40:24.026Z,3.75
2023-01-19T00:43:28.842Z,4.70
2023-01-19T00:46:34.048Z,4.25
2023-01-19T00:49:39.450Z,4.43
2023-01-19T00:52:45.112Z,4.85
2023-01-19T00:55:50.059Z,5.20
2023-01-19T00:58:54.740Z,5.05
2023-01-19T01:01:59.736Z,5.00
2023-01-19T01:05:06.095Z,5.50
2023-01-19T01:08:10.827Z,5.47
2023-01-19T01:11:15.450Z,4.78
2023-01-19T01:14:20.260Z,5.10
2023-01-19T01:17:24.927Z,5.03
2023-01-19T01:20:31.066Z,4.22
2023-01-19T01:23:36.014Z,4.05
2023-01-19T01:26:41.139Z,4.05
2023-01-19T01:29:48.641Z,4.20
2023-01-19T01:32:53.687Z,4.25
2023-01-19T01:35:58.984Z,4.53
2023-01-19T01:39:04.885Z,4.38
2023-01-19T01:42:17.774Z,4.47
2023-01-19T01:45:40.845Z,4.10
2023-01-19T01:48:56.691Z,4.50
2023-01-19T01:52:01.388Z,4.30
2023-01-19T01:55:07.177Z,4.28
2023-01-19T01:58:12.369Z,4.03
2023-01-19T02:01:36.272Z,4.43
2023-01-19T02:04:53.287Z,4.63
2023-01-19T02:08:33.113Z,3.97
2023-01-19T02:11:56.952Z,3.92
2023-01-19T02:15:02.003Z,3.30
2023-01-19T02:18:06.747Z,3.05
2023-01-19T02:21:22.267Z,3.20
2023-01-19T02:24:29.231Z,3.10
2023-01-19T02:27:34.493Z,2.85
2023-01-19T02:30:40.533Z,3.13
2023-01-19T02:33:45.915Z,2.70
2023-01-19T02:37:02.084Z,2.88
2023-01-19T02:40:13.260Z,2.45
2023-01-19T02:43:19.349Z,2.40
2023-01-19T02:46:25.205Z,2.00
2023-01-19T02:49:30.217Z,2.22
2023-01-19T02:52:35.999Z,2.20
2023-01-19T02:55:43.205Z,2.90
2023-01-19T02:58:59.467Z,2.72
2023-01-19T03:02:42.222Z,2.55
2023-01-19T03:06:05.444Z,2.92
2023-01-19T03:09:22.658Z,2.65
2023-01-19T03:13:03.361Z,2.58
2023-01-19T03:16:24.034Z,2.95
2023-01-19T03:19:34.060Z,3.28
2023-01-19T03:22:39.410Z,3.50
2023-01-19T03:25:45.814Z,3.22
2023-01-19T03:28:51.711Z,3.40
2023-01-19T03:31:59.834Z,3.63
2023-01-19T03:35:10.278Z,3.72
2023-01-19T03:38:25.245Z,3.40
2023-01-19T03:41:31.717Z,3.53
2023-01-19T03:44:38.641Z,4.05
2023-01-19T03:47:43.591Z,3.83
2023-01-19T03:50:48.382Z,3.10
2023-01-19T03:53:53.282Z,3.65
2023-01-19T03:56:58.077Z,3.72
2023-01-19T04:00:03.867Z,3.90
2023-01-19T04:03:18.069Z,3.85
2023-01-19T04:06:23.102Z,3.80
2023-01-19T04:09:28.859Z,4.00
2023-01-19T04:12:33.863Z,4.15
2023-01-19T04:15:38.872Z,3.50
2023-01-19T04:18:43.655Z,3.75
2023-01-19T04:21:50.662Z,3.05
2023-01-19T04:24:55.659Z,3.22
2023-01-19T04:28:00.875Z,3.08
2023-01-19T04:31:07.155Z,3.97
2023-01-19T04:34:18.122Z,3.60
2023-01-19T04:37:22.922Z,2.92
2023-01-19T04:40:27.948Z,3.53
2023-01-19T04:43:32.871Z,3.35
2023-01-19T04:46:37.570Z,3.22
2023-01-19T04:49:46.111Z,3.67
2023-01-19T04:52:52.142Z,3.58
2023-01-19T04:55:58.993Z,3.75
2023-01-19T04:59:03.720Z,4.22
2023-01-19T05:02:08.456Z,4.55
2023-01-19T05:05:13.710Z,4.25
2023-01-19T05:08:18.753Z,4.57
2023-01-19T05:11:23.942Z,4.00
2023-01-19T05:14:28.895Z,3.00
2023-01-19T05:17:34.456Z,3.50
2023-01-19T05:20:40.132Z,3.20
2023-01-19T05:23:44.973Z,3.30
2023-01-19T05:26:49.761Z,2.85
2023-01-19T05:29:54.764Z,2.63
2023-01-19T05:33:00.183Z,2.70
2023-01-19T05:36:05.656Z,2.17
2023-01-19T05:39:10.676Z,1.90
2023-01-19T05:42:15.579Z,2.08
2023-01-19T05:45:20.359Z,2.03
2023-01-19T05:48:25.216Z,2.25
2023-01-19T05:51:35.143Z,1.88
2023-01-19T05:54:40.435Z,2.15
2023-01-19T05:57:45.549Z,1.88
2023-01-19T06:00:50.745Z,2.00
2023-01-19T06:03:55.666Z,2.13
2023-01-19T06:07:00.556Z,2.10
2023-01-19T06:10:05.867Z,2.50
2023-01-19T06:13:11.192Z,2.13
2023-01-19T06:16:16.267Z,1.80
2023-01-19T06:19:21.225Z,1.60
2023-01-19T06:22:26.096Z,1.67
2023-01-19T06:25:30.862Z,1.55
2023-01-19T06:28:35.638Z,1.70
2023-01-19T06:31:41.074Z,1.65
2023-01-19T06:34:46.779Z,1.70
2023-01-19T06:37:52.851Z,1.60
2023-01-19T06:40:58.912Z,2.03
2023-01-19T06:44:04.894Z,1.90
2023-01-19T06:47:15.942Z,1.90
2023-01-19T06:50:21.302Z,2.10
2023-01-19T06:53:27.934Z,2.20
2023-01-19T06:56:33.094Z,2.05
2023-01-19T06:59:41.555Z,2.10
2023-01-19T07:02:46.457Z,2.20
2023-01-19T07:05:52.795Z,2.10
2023-01-19T07:08:57.936Z,2.63
2023-01-19T07:12:02.607Z,2.40
2023-01-19T07:15:09.399Z,2.25
2023-01-19T07:18:14.343Z,2.10
2023-01-19T07:21:19.390Z,3.08
2023-01-19T07:24:24.269Z,2.38
2023-01-19T07:27:28.915Z,2.30
2023-01-19T07:30:33.746Z,2.83
2023-01-19T07:33:38.511Z,2.40
2023-01-19T07:36:44.055Z,2.30
2023-01-19T07:39:48.977Z,2.10
2023-01-19T07:42:54.068Z,2.55
2023-01-19T07:46:00.188Z,1.83
2023-01-19T07:49:05.348Z,2.22
2023-01-19T07:52:10.393Z,2.22
2023-01-19T07:55:15.099Z,2.70
2023-01-19T07:58:20.121Z,2.92
2023-01-19T08:01:25.386Z,3.40
2023-01-19T08:04:30.255Z,3.30
2023-01-19T08:07:35.171Z,3.80
2023-01-19T08:10:39.880Z,4.07
2023-01-19T08:13:44.730Z,3.70
2023-01-19T08:16:49.679Z,3.90
2023-01-19T08:19:55.021Z,4.40
2023-01-19T08:23:00.395Z,4.40
2023-01-19T08:26:33.107Z,4.00
2023-01-19T08:29:38.846Z,4.32
2023-01-19T08:32:43.619Z,4.28
2023-01-19T08:35:51.141Z,3.83
2023-01-19T08:38:56.014Z,5.28
2023-01-19T08:42:00.868Z,4.93
2023-01-19T08:45:06.589Z,5.25
2023-01-19T08:48:12.343Z,5.05
2023-01-19T08:51:17.324Z,5.03
2023-01-19T08:54:23.159Z,5.65
2023-01-19T08:57:28.522Z,6.03
2023-01-19T09:00:34.346Z,6.07
2023-01-19T09:03:39.632Z,6.00
2023-01-19T09:06:44.855Z,7.28
2023-01-19T09:09:49.831Z,7.50
2023-01-19T09:12:54.884Z,6.93
2023-01-19T09:16:03.741Z,7.80
2023-01-19T09:19:09.154Z,6.60
2023-01-19T09:22:14.148Z,7.00
2023-01-19T09:25:19.622Z,6.80
2023-01-19T09:28:24.527Z,6.68
2023-01-19T09:31:29.545Z,6.93
2023-01-19T09:34:34.791Z,6.47
2023-01-19T09:37:39.781Z,6.38
2023-01-19T09:40:54.224Z,7.35
2023-01-19T09:44:00.928Z,12.00
2023-01-19T09:47:15.296Z,8.98
2023-01-19T09:50:32.101Z,7.90
2023-01-19T09:54:12.293Z,7.85
2023-01-19T09:57:17.278Z,7.60
2023-01-19T10:00:24.242Z,8.10
2023-01-19T10:03:29.501Z,7.40
2023-01-19T10:06:34.661Z,7.72
2023-01-19T10:09:51.480Z,7.60
2023-01-19T10:13:30.758Z,7.57
2023-01-19T10:16:53.377Z,6.93
2023-01-19T10:19:58.739Z,7.70
2023-01-19T10:23:16.356Z,7.07
2023-01-19T10:26:36.415Z,5.90
2023-01-19T10:29:42.085Z,6.55
2023-01-19T10:32:46.811Z,5.78
2023-01-19T10:35:51.848Z,5.63
2023-01-19T10:38:56.686Z,6.32
2023-01-19T10:42:02.600Z,6.88
2023-01-19T10:45:23.801Z,6.47
2023-01-19T10:48:40.512Z,7.50
2023-01-19T10:51:48.042Z,8.50
2023-01-19T10:54:52.817Z,8.05
2023-01-19T10:57:58.914Z,7.93
2023-01-19T11:01:36.991Z,6.93
2023-01-19T11:04:42.433Z,6.07
2023-01-19T11:07:47.683Z,6.25
2023-01-19T11:10:55.889Z,6.70
2023-01-19T11:14:13.180Z,5.53
2023-01-19T11:17:24.021Z,6.03
2023-01-19T11:20:43.952Z,6.68
2023-01-19T11:23:55.498Z,7.38
2023-01-19T11:27:03.620Z,7.18
2023-01-19T11:30:35.358Z,7.57
2023-01-19T11:33:52.669Z,8.40
2023-01-19T11:37:18.397Z,7.78
2023-01-19T11:40:23.595Z,8.40
2023-01-19T11:43:39.766Z,9.95
2023-01-19T11:47:06.386Z,43.75
2023-01-19T11:50:30.971Z,41.03
2023-01-19T11:53:36.136Z,11.18
2023-01-19T11:56:41.515Z,22.67
2023-01-19T11:59:46.564Z,24.30
2023-01-19T12:02:58.670Z,23.88
2023-01-19T12:06:15.647Z,21.73
2023-01-19T12:09:30.225Z,10.48
2023-01-19T12:12:36.527Z,17.08
2023-01-19T12:15:44.697Z,14.38
2023-01-19T12:19:06.825Z,10.98
2023-01-19T12:22:16.938Z,10.60
2023-01-19T12:26:01.370Z,12.82
2023-01-19T12:29:13.281Z,15.90
2023-01-19T12:32:20.032Z,14.30
2023-01-19T12:36:10.097Z,16.08
2023-01-19T12:39:22.016Z,15.15
2023-01-19T12:42:27.345Z,15.55
2023-01-19T12:45:34.529Z,14.98
2023-01-19T12:48:40.494Z,15.13
2023-01-19T12:51:46.040Z,14.52
2023-01-19T12:55:13.267Z,12.82
2023-01-19T12:58:23.182Z,11.45
2023-01-19T13:01:28.408Z,11.63
2023-01-19T13:04:33.885Z,11.00
2023-01-19T13:08:07.163Z,11.75
2023-01-19T13:11:19.808Z,10.52
2023-01-19T13:14:36.693Z,20.48
2023-01-19T13:17:52.245Z,38.50
2023-01-19T13:21:07.917Z,33.22
2023-01-19T13:24:15.854Z,31.08
2023-01-19T13:27:20.693Z,38.42
2023-01-19T13:30:28.397Z,46.95
2023-01-19T13:33:49.268Z,47.45
2023-01-19T13:36:56.621Z,17.75
2023-01-19T13:40:02.300Z,37.15
2023-01-19T13:43:17.883Z,35.95
2023-01-19T13:46:23.423Z,21.00
2023-01-19T13:49:39.231Z,18.83
2023-01-19T13:52:44.292Z,15.32
2023-01-19T13:56:06.308Z,15.27
2023-01-19T13:59:12.957Z,17.80
2023-01-19T14:02:18.149Z,17.50
2023-01-19T14:05:31.570Z,21.20
2023-01-19T14:08:36.716Z,22.15
2023-01-19T14:11:41.688Z,19.17
2023-01-19T14:14:49.510Z,14.80
2023-01-19T14:18:30.536Z,17.45
2023-01-19T14:21:40.679Z,12.65
2023-01-19T14:24:46.098Z,12.00
2023-01-19T14:27:50.968Z,12.40
2023-01-19T14:31:02.987Z,11.73
2023-01-19T14:34:34.156Z,11.93
2023-01-19T14:37:47.650Z,12.70
2023-01-19T14:40:52.687Z,11.98
2023-01-19T14:43:59.157Z,13.20
2023-01-19T14:47:05.630Z,10.90
2023-01-19T14:50:35.364Z,17.42
2023-01-19T14:53:49.581Z,17.70
2023-01-19T14:56:54.655Z,32.55
2023-01-19T14:59:59.445Z,25.55
2023-01-19T15:03:06.122Z,25.92
2023-01-19T15:06:17.679Z,58.22
2023-01-19T15:09:22.354Z,56.80
2023-01-19T15:12:28.392Z,28.02
2023-01-19T15:15:34.770Z,24.25
2023-01-19T15:18:40.120Z,19.33
2023-01-19T15:21:46.875Z,19.45
2023-01-19T15:24:57.320Z,15.93
2023-01-19T15:28:02.319Z,16.10
2023-01-19T15:31:09.345Z,16.30
2023-01-19T15:34:14.622Z,16.70
2023-01-19T15:37:19.520Z,17.27
2023-01-19T15:40:24.306Z,16.80
2023-01-19T15:43:28.889Z,16.42
2023-01-19T15:46:33.873Z,18.02
2023-01-19T15:49:38.528Z,18.95
2023-01-19T15:52:43.707Z,17.17
2023-01-19T15:55:51.456Z,17.05
2023-01-19T15:58:58.066Z,16.27
2023-01-19T16:02:03.892Z,16.88
2023-01-19T16:05:09.918Z,16.80
2023-01-19T16:08:15.243Z,18.83
2023-01-19T16:11:19.913Z,20.13
2023-01-19T16:14:24.839Z,19.02
2023-01-19T16:17:29.570Z,17.33
2023-01-19T16:20:34.612Z,19.05
2023-01-19T16:23:39.640Z,31.50
2023-01-19T16:26:45.200Z,55.40
2023-01-19T16:29:50.705Z,86.13
2023-01-19T16:32:55.521Z,49.47
2023-01-19T16:36:28.337Z,67.85
2023-01-19T16:39:33.600Z,48.15
2023-01-19T16:42:39.675Z,41.97
2023-01-19T16:46:01.083Z,27.00
2023-01-19T16:49:21.367Z,17.33
2023-01-19T16:52:27.061Z,20.08
2023-01-19T16:55:32.625Z,15.32
2023-01-19T16:58:39.206Z,14.10
2023-01-19T17:01:46.647Z,13.40
2023-01-19T17:04:51.563Z,13.70
2023-01-19T17:07:56.841Z,13.95
2023-01-19T17:11:04.996Z,15.10
2023-01-19T17:14:17.154Z,16.33
2023-01-19T17:17:22.113Z,21.00
2023-01-19T17:20:26.787Z,21.70
2023-01-19T17:23:32.061Z,19.30
2023-01-19T17:26:36.862Z,22.83
2023-01-19T17:29:41.716Z,20.27
2023-01-19T17:32:46.882Z,22.13
2023-01-19T17:35:51.777Z,19.92
2023-01-19T17:38:59.830Z,20.35
2023-01-19T17:42:04.820Z,19.58
2023-01-19T17:45:11.107Z,20.20
2023-01-19T17:48:17.483Z,20.35
2023-01-19T17:51:23.461Z,23.52
2023-01-19T17:54:28.305Z,41.10
2023-01-19T17:57:33.207Z,29.13
2023-01-19T18:00:38.344Z,30.85
2023-01-19T18:03:43.596Z,29.52
2023-01-19T18:06:49.964Z,40.08
2023-01-19T18:10:00.166Z,23.77
2023-01-19T18:13:06.025Z,25.85
2023-01-19T18:16:15.353Z,22.25
2023-01-19T18:19:22.258Z,16.95
2023-01-19T18:22:27.340Z,16.75
2023-01-19T18:25:32.232Z,16.50
2023-01-19T18:28:37.435Z,17.58
2023-01-19T18:31:42.880Z,18.15
2023-01-19T18:34:47.998Z,17.55
2023-01-19T18:37:54.848Z,16.50
2023-01-19T18:41:10.642Z,29.15
2023-01-19T18:44:15.709Z,25.65
2023-01-19T18:47:20.759Z,19.83
2023-01-19T18:50:25.790Z,18.15
2023-01-19T18:53:31.912Z,15.45
2023-01-19T18:56:36.854Z,17.27
2023-01-19T18:59:43.877Z,18.15
2023-01-19T19:02:49.046Z,17.17
2023-01-19T19:05:54.339Z,17.58
2023-01-19T19:09:01.882Z,16.92
2023-01-19T19:12:07.133Z,18.30
2023-01-19T19:15:11.954Z,16.70
2023-01-19T19:18:16.663Z,23.83
2023-01-19T19:21:24.029Z,23.17
2023-01-19T19:24:28.940Z,23.45
2023-01-19T19:27:34.450Z,22.10
2023-01-19T19:30:41.071Z,22.58
2023-01-19T19:33:48.461Z,23.13
2023-01-19T19:36:53.646Z,24.02
2023-01-19T19:39:59.988Z,20.05
2023-01-19T19:43:05.099Z,19.02
2023-01-19T19:46:13.647Z,20.63
2023-01-19T19:49:21.440Z,44.92
2023-01-19T19:52:27.672Z,17.80
2023-01-19T19:55:32.424Z,18.38
2023-01-19T19:58:38.942Z,18.25
2023-01-19T20:01:45.252Z,16.75
2023-01-19T20:04:50.792Z,20.98
2023-01-19T20:07:55.788Z,19.05
2023-01-19T20:11:09.798Z,20.70
2023-01-19T20:14:16.319Z,19.02
2023-01-19T20:17:21.322Z,16.00
2023-01-19T20:20:27.683Z,15.57
2023-01-19T20:23:33.587Z,16.05
2023-01-19T20:26:42.613Z,16.70
2023-01-19T20:29:51.821Z,14.50
2023-01-19T20:32:57.141Z,16.38
2023-01-19T20:36:02.282Z,15.00
2023-01-19T20:39:11.255Z,16.20
2023-01-19T20:42:16.621Z,14.70
2023-01-19T20:45:21.928Z,14.20
2023-01-19T20:48:26.775Z,14.80
2023-01-19T20:51:31.552Z,14.40
2023-01-19T20:54:36.712Z,18.60
2023-01-19T20:57:41.999Z,20.35
2023-01-19T21:00:47.508Z,17.52
2023-01-19T21:03:52.479Z,15.52
2023-01-19T21:06:57.484Z,17.20
2023-01-19T21:10:02.357Z,16.27
2023-01-19T21:13:07.436Z,16.80
2023-01-19T21:16:12.606Z,17.92
2023-01-19T21:19:18.188Z,20.55
2023-01-19T21:22:22.950Z,18.85
2023-01-19T21:25:27.951Z,17.65
2023-01-19T21:28:33.313Z,18.00
2023-01-19T21:31:38.382Z,18.02
2023-01-19T21:34:44.165Z,17.17
2023-01-19T21:37:49.123Z,15.70
2023-01-19T21:40:55.470Z,16.23
2023-01-19T21:44:01.042Z,14.35
2023-01-19T21:47:11.815Z,14.38
2023-01-19T21:50:16.898Z,15.65
2023-01-19T21:53:22.088Z,20.58
2023-01-19T21:56:28.482Z,16.17
2023-01-19T21:59:33.141Z,14.52
2023-01-19T22:02:39.164Z,16.02
2023-01-19T22:05:44.496Z,15.85
2023-01-19T22:08:49.896Z,15.93
2023-01-19T22:11:58.069Z,18.17
2023-01-19T22:15:02.882Z,15.18
2023-01-19T22:18:08.074Z,15.55
2023-01-19T22:21:23.709Z,16.55
2023-01-19T22:24:28.933Z,16.15
2023-01-19T22:27:33.806Z,17.17
2023-01-19T22:30:38.843Z,15.57
2023-01-19T22:33:44.183Z,16.27
2023-01-19T22:36:49.357Z,16.20
2023-01-19T22:39:54.811Z,17.55
2023-01-19T22:42:59.585Z,16.77
2023-01-19T22:46:04.299Z,16.63
2023-01-19T22:49:13.463Z,15.35
2023-01-19T22:52:18.142Z,14.40
2023-01-19T22:55:22.872Z,15.60
2023-01-19T22:58:28.001Z,15.63
2023-01-19T23:01:43.386Z,15.95
2023-01-19T23:04:48.424Z,15.98
2023-01-19T23:07:53.419Z,15.88
2023-01-19T23:10:58.369Z,17.50
2023-01-19T23:14:07.003Z,15.55
2023-01-19T23:17:11.779Z,16.38
2023-01-19T23:20:16.925Z,16.23
2023-01-19T23:23:21.996Z,16.60
2023-01-19T23:26:27.080Z,15.35
2023-01-19T23:29:32.213Z,15.30
2023-01-19T23:32:37.250Z,13.77
2023-01-19T23:35:42.011Z,15.00
2023-01-19T23:38:52.643Z,15.80
2023-01-19T23:41:57.567Z,13.40
2023-01-19T23:45:02.493Z,15.35
2023-01-19T23:48:07.675Z,14.45
2023-01-19T23:51:17.595Z,15.32
2023-01-19T23:54:22.362Z,15.07
2023-01-19T23:57:27.148Z,13.75
